createdAt,value
2018-05-17T00:02:22.569Z,17.27
2018-05-17T00:04:50.828Z,16.37
2018-05-17T00:07:19.065Z,17.60
2018-05-17T00:09:46.529Z,17.07
2018-05-17T00:12:14.005Z,14.37
2018-05-17T00:14:41.477Z,17.03
2018-05-17T00:17:08.950Z,15.80
2018-05-17T00:19:36.492Z,15.23
2018-05-17T00:22:03.961Z,15.70
2018-05-17T00:24:31.513Z,13.97
2018-05-17T00:26:59.132Z,19.33
2018-05-17T00:29:26.585Z,18.40
2018-05-17T00:31:54.053Z,15.63
2018-05-17T00:34:21.516Z,16.57
2018-05-17T00:36:48.985Z,16.03
2018-05-17T00:39:16.449Z,15.83
2018-05-17T00:41:43.914Z,19.10
2018-05-17T00:44:11.543Z,16.83
2018-05-17T00:46:39.045Z,18.83
2018-05-17T00:49:06.609Z,18.30
2018-05-17T00:51:34.081Z,20.93
2018-05-17T00:54:02.348Z,21.17
2018-05-17T00:56:29.903Z,19.53
2018-05-17T00:58:57.461Z,21.07
2018-05-17T01:01:25.956Z,18.00
2018-05-17T01:03:53.425Z,16.67
2018-05-17T01:06:21.660Z,17.33
2018-05-17T01:08:49.299Z,18.73
2018-05-17T01:11:16.760Z,19.30
2018-05-17T01:13:44.225Z,19.03
2018-05-17T01:16:11.712Z,16.03
2018-05-17T01:18:39.193Z,15.87
2018-05-17T01:21:07.449Z,15.67
2018-05-17T01:23:35.009Z,15.53
2018-05-17T01:26:02.573Z,16.87
2018-05-17T01:28:30.050Z,16.47
2018-05-17T01:30:58.285Z,15.50
2018-05-17T01:33:25.749Z,16.50
2018-05-17T01:35:53.212Z,15.33
2018-05-17T01:38:25.596Z,15.73
2018-05-17T01:40:53.153Z,14.30
2018-05-17T01:43:20.622Z,14.77
2018-05-17T01:45:48.085Z,15.10
2018-05-17T01:48:15.628Z,14.77
2018-05-17T01:50:43.090Z,14.50
2018-05-17T01:53:10.648Z,14.33
2018-05-17T01:55:38.924Z,15.33
2018-05-17T01:58:06.489Z,16.73
2018-05-17T02:00:33.961Z,15.53
2018-05-17T02:03:01.505Z,17.00
2018-05-17T02:05:29.070Z,16.13
2018-05-17T02:07:56.624Z,15.77
2018-05-17T02:10:24.101Z,18.30
2018-05-17T02:12:51.645Z,17.20
2018-05-17T02:15:19.123Z,20.30
2018-05-17T02:17:47.377Z,21.50
2018-05-17T02:20:14.944Z,20.27
2018-05-17T02:22:42.402Z,21.17
2018-05-17T02:25:09.957Z,20.50
2018-05-17T02:27:37.432Z,21.37
2018-05-17T02:30:04.979Z,22.50
2018-05-17T02:32:32.450Z,22.50
2018-05-17T02:34:59.918Z,21.93
2018-05-17T02:37:28.153Z,23.73
2018-05-17T02:39:55.621Z,22.40
2018-05-17T02:42:23.093Z,25.90
2018-05-17T02:44:50.650Z,22.03
2018-05-17T02:47:18.116Z,24.63
2018-05-17T02:49:46.384Z,22.63
2018-05-17T02:52:13.861Z,23.30
2018-05-17T02:54:41.459Z,22.20
2018-05-17T02:57:08.918Z,23.83
2018-05-17T02:59:36.417Z,22.70
2018-05-17T03:02:03.897Z,22.37
2018-05-17T03:04:32.163Z,22.60
2018-05-17T03:06:59.624Z,22.10
2018-05-17T03:09:27.097Z,23.43
2018-05-17T03:11:55.345Z,22.03
2018-05-17T03:14:22.826Z,21.40
2018-05-17T03:16:51.083Z,19.83
2018-05-17T03:19:18.549Z,22.73
2018-05-17T03:21:46.092Z,21.73
2018-05-17T03:24:13.617Z,23.47
2018-05-17T03:26:41.122Z,23.87
2018-05-17T03:29:08.604Z,22.17
2018-05-17T03:31:36.837Z,23.20
2018-05-17T03:34:04.309Z,21.13
2018-05-17T03:36:31.781Z,21.77
2018-05-17T03:38:59.240Z,19.10
2018-05-17T03:41:26.787Z,21.60
2018-05-17T03:43:54.261Z,20.47
2018-05-17T03:46:21.733Z,19.57
2018-05-17T03:48:51.144Z,20.57
2018-05-17T03:51:19.372Z,20.07
2018-05-17T03:53:46.947Z,20.10
2018-05-17T03:56:14.504Z,18.30
2018-05-17T03:58:41.982Z,19.07
2018-05-17T04:01:22.252Z,17.67
2018-05-17T04:04:01.662Z,16.83
2018-05-17T04:06:42.285Z,17.10
2018-05-17T04:09:09.744Z,17.33
2018-05-17T04:11:37.213Z,36.60
2018-05-17T04:14:04.712Z,18.87
2018-05-17T04:16:33.086Z,15.90
2018-05-17T04:19:00.649Z,15.53
2018-05-17T04:21:28.138Z,13.23
2018-05-17T04:23:56.380Z,12.57
2018-05-17T04:26:23.851Z,13.17
2018-05-17T04:28:51.397Z,13.73
2018-05-17T04:31:18.867Z,12.47
2018-05-17T04:33:46.412Z,14.57
2018-05-17T04:36:13.888Z,13.33
2018-05-17T04:38:42.150Z,15.40
2018-05-17T04:41:09.616Z,11.00
2018-05-17T04:43:37.084Z,17.53
2018-05-17T04:46:05.343Z,17.57
2018-05-17T04:48:32.900Z,55.20
2018-05-17T04:51:00.385Z,54.90
2018-05-17T04:53:28.643Z,40.97
2018-05-17T04:55:56.197Z,19.97
2018-05-17T04:58:24.429Z,19.20
2018-05-17T05:00:51.888Z,8.17
2018-05-17T05:03:19.389Z,10.27
2018-05-17T05:05:46.845Z,8.00
2018-05-17T05:08:15.120Z,8.27
2018-05-17T05:10:42.585Z,6.77
2018-05-17T05:13:10.145Z,10.33
2018-05-17T05:15:38.432Z,7.50
2018-05-17T05:18:05.872Z,9.70
2018-05-17T05:20:33.337Z,8.43
2018-05-17T05:23:00.799Z,8.00
2018-05-17T05:25:29.069Z,6.27
2018-05-17T05:27:56.626Z,5.50
2018-05-17T05:30:24.090Z,6.13
2018-05-17T05:32:52.320Z,5.87
2018-05-17T05:35:19.777Z,7.37
2018-05-17T05:37:47.281Z,5.30
2018-05-17T05:40:14.845Z,5.90
2018-05-17T05:42:42.317Z,8.07
2018-05-17T05:45:09.859Z,5.07
2018-05-17T05:47:37.434Z,6.27
2018-05-17T05:50:04.984Z,5.37
2018-05-17T05:52:32.542Z,6.03
2018-05-17T05:54:59.997Z,8.73
2018-05-17T05:57:27.559Z,8.53
2018-05-17T05:59:55.119Z,4.20
2018-05-17T06:02:22.720Z,7.60
2018-05-17T06:04:50.202Z,5.47
2018-05-17T06:07:17.605Z,4.20
2018-05-17T06:09:45.157Z,3.90
2018-05-17T06:12:13.493Z,3.37
2018-05-17T06:14:40.949Z,9.97
2018-05-17T06:17:08.453Z,21.57
2018-05-17T06:19:35.913Z,3.80
2018-05-17T06:22:03.426Z,17.27
2018-05-17T06:24:30.922Z,4.93
2018-05-17T06:26:58.340Z,3.10
2018-05-17T06:29:25.797Z,3.27
2018-05-17T06:31:53.361Z,4.10
2018-05-17T06:34:20.857Z,4.50
2018-05-17T06:36:48.484Z,3.53
2018-05-17T06:39:15.984Z,4.40
2018-05-17T06:41:43.456Z,6.80
2018-05-17T06:44:10.996Z,3.90
2018-05-17T06:46:38.560Z,5.07
2018-05-17T06:49:06.129Z,5.40
2018-05-17T06:51:33.589Z,3.40
2018-05-17T06:54:01.048Z,3.70
2018-05-17T06:56:28.593Z,4.83
2018-05-17T06:58:56.117Z,3.03
2018-05-17T07:01:23.617Z,3.77
2018-05-17T07:03:51.178Z,3.97
2018-05-17T07:06:18.734Z,2.87
2018-05-17T07:08:46.297Z,4.37
2018-05-17T07:11:13.757Z,6.00
2018-05-17T07:13:41.213Z,3.50
2018-05-17T07:16:08.683Z,4.20
2018-05-17T07:18:36.403Z,2.87
2018-05-17T07:21:03.689Z,4.30
2018-05-17T07:23:31.157Z,2.53
2018-05-17T07:25:58.626Z,3.30
2018-05-17T07:28:26.877Z,4.23
2018-05-17T07:30:54.438Z,3.90
2018-05-17T07:33:21.895Z,4.83
2018-05-17T07:35:49.462Z,9.30
2018-05-17T07:38:17.021Z,3.43
2018-05-17T07:40:44.580Z,4.53
2018-05-17T07:43:12.041Z,11.67
2018-05-17T07:45:39.497Z,4.80
2018-05-17T07:48:06.957Z,3.47
2018-05-17T07:50:34.424Z,6.47
2018-05-17T07:53:01.929Z,5.20
2018-05-17T07:55:29.520Z,6.37
2018-05-17T07:57:56.993Z,3.70
2018-05-17T08:00:24.569Z,3.90
2018-05-17T08:02:52.112Z,7.30
2018-05-17T08:05:19.672Z,6.03
2018-05-17T08:07:47.238Z,5.40
2018-05-17T08:10:14.793Z,4.13
2018-05-17T08:12:42.265Z,4.10
2018-05-17T08:15:09.815Z,4.80
2018-05-17T08:17:37.377Z,5.87
2018-05-17T08:20:05.597Z,4.53
2018-05-17T08:22:33.105Z,5.43
2018-05-17T08:25:00.569Z,4.73
2018-05-17T08:27:28.124Z,4.07
2018-05-17T08:29:55.685Z,4.07
2018-05-17T08:32:23.922Z,4.37
2018-05-17T08:34:51.420Z,3.83
2018-05-17T08:37:18.886Z,4.07
2018-05-17T08:39:46.342Z,4.80
2018-05-17T08:42:13.904Z,4.20
2018-05-17T08:44:42.235Z,6.57
2018-05-17T08:47:09.680Z,4.47
2018-05-17T08:49:37.138Z,4.77
2018-05-17T08:52:04.649Z,6.13
2018-05-17T08:54:32.135Z,5.33
2018-05-17T08:57:00.385Z,6.23
2018-05-17T08:59:27.920Z,5.30
2018-05-17T09:01:55.416Z,5.43
2018-05-17T09:04:22.885Z,4.60
2018-05-17T09:06:51.110Z,4.10
2018-05-17T09:09:18.665Z,4.87
2018-05-17T09:11:46.113Z,4.83
2018-05-17T09:14:13.589Z,4.30
2018-05-17T09:16:41.048Z,4.20
2018-05-17T09:19:08.531Z,4.47
2018-05-17T09:21:35.989Z,4.30
2018-05-17T09:24:04.222Z,5.27
2018-05-17T09:26:31.677Z,4.53
2018-05-17T09:28:59.181Z,5.03
2018-05-17T09:31:26.745Z,4.67
2018-05-17T09:33:54.220Z,5.20
2018-05-17T09:36:22.472Z,4.40
2018-05-17T09:38:49.941Z,5.10
2018-05-17T09:41:17.489Z,4.03
2018-05-17T09:43:44.864Z,4.73
2018-05-17T09:46:12.475Z,4.07
2018-05-17T09:48:39.976Z,4.60
2018-05-17T09:51:08.268Z,6.27
2018-05-17T09:53:35.805Z,4.83
2018-05-17T09:56:03.373Z,3.93
2018-05-17T09:58:30.840Z,4.77
2018-05-17T10:00:58.298Z,4.20
2018-05-17T10:03:25.757Z,4.20
2018-05-17T10:05:53.220Z,4.30
2018-05-17T10:08:21.497Z,6.63
2018-05-17T10:10:48.954Z,3.83
2018-05-17T10:13:16.417Z,3.90
2018-05-17T10:15:44.650Z,4.50
2018-05-17T10:18:12.125Z,4.17
2018-05-17T10:20:39.691Z,4.30
2018-05-17T10:23:07.320Z,4.50
2018-05-17T10:25:34.713Z,4.80
2018-05-17T10:28:02.168Z,4.37
2018-05-17T10:30:29.629Z,4.27
2018-05-17T10:32:57.105Z,4.87
2018-05-17T10:35:25.336Z,3.90
2018-05-17T10:37:52.813Z,4.37
2018-05-17T10:40:20.269Z,4.27
2018-05-17T10:42:47.838Z,4.67
2018-05-17T10:45:16.193Z,5.77
2018-05-17T10:47:43.669Z,6.53
2018-05-17T10:50:11.229Z,5.80
2018-05-17T10:52:38.689Z,5.27
2018-05-17T10:55:06.157Z,3.73
2018-05-17T10:57:33.617Z,4.33
2018-05-17T11:00:01.164Z,3.73
2018-05-17T11:02:28.631Z,4.77
2018-05-17T11:04:56.181Z,5.20
2018-05-17T11:07:23.745Z,3.97
2018-05-17T11:09:51.312Z,3.50
2018-05-17T11:12:18.943Z,3.87
2018-05-17T11:14:46.424Z,3.93
2018-05-17T11:17:14.661Z,6.03
2018-05-17T11:19:42.123Z,3.80
2018-05-17T11:22:09.624Z,3.87
2018-05-17T11:24:37.120Z,4.17
2018-05-17T11:27:05.353Z,4.70
2018-05-17T11:29:32.915Z,3.90
2018-05-17T11:32:00.377Z,6.03
2018-05-17T11:34:27.841Z,5.80
2018-05-17T11:36:55.395Z,4.80
2018-05-17T11:39:22.848Z,4.17
2018-05-17T11:41:50.388Z,4.87
2018-05-17T11:44:17.869Z,4.73
2018-05-17T11:46:45.429Z,4.30
2018-05-17T11:49:12.984Z,4.50
2018-05-17T11:51:40.440Z,6.90
2018-05-17T11:54:07.901Z,5.30
2018-05-17T11:56:35.466Z,7.10
2018-05-17T11:59:03.025Z,6.03
2018-05-17T12:01:30.603Z,4.63
2018-05-17T12:03:58.045Z,5.00
2018-05-17T12:06:25.600Z,4.33
2018-05-17T12:08:53.166Z,6.57
2018-05-17T12:11:20.682Z,4.33
2018-05-17T12:13:48.176Z,4.70
2018-05-17T12:16:15.632Z,4.17
2018-05-17T12:18:43.093Z,3.80
2018-05-17T12:21:10.665Z,3.90
2018-05-17T12:23:38.225Z,5.10
2018-05-17T12:26:05.680Z,4.77
2018-05-17T12:28:33.138Z,7.17
2018-05-17T12:31:00.693Z,5.23
2018-05-17T12:33:28.256Z,4.20
2018-05-17T12:35:55.774Z,5.87
2018-05-17T12:38:23.231Z,4.80
2018-05-17T12:40:50.691Z,4.97
2018-05-17T12:43:18.149Z,5.93
2018-05-17T12:45:45.645Z,5.23
2018-05-17T12:48:13.105Z,4.73
2018-05-17T12:50:40.568Z,5.27
2018-05-17T12:53:08.121Z,6.93
2018-05-17T12:55:35.584Z,11.53
2018-05-17T12:58:03.857Z,7.30
2018-05-17T13:00:31.421Z,6.27
2018-05-17T13:02:58.984Z,8.53
2018-05-17T13:05:26.599Z,7.10
2018-05-17T13:07:54.101Z,6.23
2018-05-17T13:10:21.569Z,5.77
2018-05-17T13:12:49.076Z,5.93
2018-05-17T13:15:16.537Z,6.87
2018-05-17T13:17:43.992Z,5.77
2018-05-17T13:20:11.488Z,4.80
2018-05-17T13:22:38.945Z,5.10
2018-05-17T13:25:06.405Z,4.57
2018-05-17T13:27:33.972Z,4.07
2018-05-17T13:30:01.443Z,5.90
2018-05-17T13:32:28.910Z,9.40
2018-05-17T13:34:57.164Z,9.20
2018-05-17T13:37:24.797Z,5.10
2018-05-17T13:39:52.954Z,6.83
2018-05-17T13:42:20.463Z,8.23
2018-05-17T13:44:47.921Z,6.57
2018-05-17T13:47:16.194Z,5.73
2018-05-17T13:49:43.806Z,6.13
2018-05-17T13:52:11.310Z,4.80
2018-05-17T13:54:38.763Z,6.33
2018-05-17T13:57:06.335Z,2.50
2018-05-17T13:59:33.789Z,4.20
2018-05-17T14:02:01.349Z,3.13
2018-05-17T14:04:28.906Z,4.53
2018-05-17T14:06:56.472Z,3.00
2018-05-17T14:09:23.937Z,2.87
2018-05-17T14:11:51.486Z,5.30
2018-05-17T14:14:19.048Z,31.97
2018-05-17T14:16:46.609Z,9.93
2018-05-17T14:19:14.075Z,12.10
2018-05-17T14:21:41.533Z,12.73
2018-05-17T14:24:09.080Z,7.03
2018-05-17T14:26:36.540Z,4.67
2018-05-17T14:29:04.107Z,5.00
2018-05-17T14:31:32.376Z,4.63
2018-05-17T14:33:59.835Z,6.17
2018-05-17T14:36:27.398Z,9.20
2018-05-17T14:38:54.960Z,6.00
2018-05-17T14:41:22.517Z,6.63
2018-05-17T14:43:49.988Z,6.80
2018-05-17T14:46:17.448Z,9.53
2018-05-17T14:48:44.997Z,6.50
2018-05-17T14:51:12.461Z,5.47
2018-05-17T14:53:39.973Z,4.77
2018-05-17T14:56:07.433Z,5.27
2018-05-17T14:58:34.930Z,6.07
2018-05-17T15:01:02.389Z,6.40
2018-05-17T15:03:29.951Z,5.67
2018-05-17T15:05:57.401Z,5.20
2018-05-17T15:08:24.970Z,5.80
2018-05-17T15:10:52.429Z,6.30
2018-05-17T15:13:20.051Z,5.60
2018-05-17T15:15:47.506Z,6.03
2018-05-17T15:18:14.966Z,5.30
2018-05-17T15:20:42.425Z,5.90
2018-05-17T15:23:09.916Z,6.93
2018-05-17T15:25:37.484Z,5.90
2018-05-17T15:28:04.940Z,6.60
2018-05-17T15:30:32.496Z,7.00
2018-05-17T15:32:59.948Z,7.93
2018-05-17T15:35:27.430Z,10.23
2018-05-17T15:37:54.889Z,7.67
2018-05-17T15:40:22.433Z,8.37
2018-05-17T15:42:49.994Z,9.33
2018-05-17T15:45:17.448Z,9.00
2018-05-17T15:47:45.032Z,9.60
2018-05-17T15:50:13.264Z,10.73
2018-05-17T15:52:40.717Z,9.53
2018-05-17T15:55:08.206Z,10.10
2018-05-17T15:57:35.843Z,9.50
2018-05-17T16:00:03.230Z,9.07
2018-05-17T16:02:30.695Z,12.33
2018-05-17T16:04:58.152Z,10.50
2018-05-17T16:07:25.620Z,10.37
2018-05-17T16:09:53.873Z,10.27
2018-05-17T16:12:21.343Z,12.03
2018-05-17T16:14:48.928Z,13.67
2018-05-17T16:17:16.365Z,10.30
2018-05-17T16:19:43.824Z,10.20
2018-05-17T16:22:12.068Z,11.13
2018-05-17T16:24:39.546Z,9.40
2018-05-17T16:27:07.105Z,10.93
2018-05-17T16:29:34.619Z,14.60
2018-05-17T16:32:02.099Z,12.50
2018-05-17T16:34:29.562Z,10.17
2018-05-17T16:36:57.020Z,10.97
2018-05-17T16:39:24.485Z,10.63
2018-05-17T16:41:52.056Z,10.43
2018-05-17T16:44:19.535Z,10.07
2018-05-17T16:46:47.776Z,13.87
2018-05-17T16:49:15.249Z,11.20
2018-05-17T16:51:42.805Z,10.93
2018-05-17T16:54:10.276Z,11.83
2018-05-17T16:56:37.824Z,11.50
2018-05-17T16:59:05.388Z,14.47
2018-05-17T17:01:32.949Z,11.97
2018-05-17T17:04:00.420Z,12.43
2018-05-17T17:06:27.890Z,12.77
2018-05-17T17:08:56.141Z,12.67
2018-05-17T17:11:23.612Z,13.37
2018-05-17T17:13:51.161Z,16.30
2018-05-17T17:16:18.637Z,13.33
2018-05-17T17:18:46.881Z,15.47
2018-05-17T17:21:14.340Z,16.97
2018-05-17T17:23:41.813Z,13.93
2018-05-17T17:26:09.381Z,15.20
2018-05-17T17:28:36.849Z,16.40
2018-05-17T17:31:05.094Z,17.47
2018-05-17T17:33:32.721Z,17.23
2018-05-17T17:36:00.226Z,22.97
2018-05-17T17:38:27.785Z,32.10
2018-05-17T17:40:55.406Z,19.30
2018-05-17T17:43:22.865Z,24.00
2018-05-17T17:45:50.328Z,25.37
2018-05-17T17:48:17.792Z,21.97
2018-05-17T17:50:45.265Z,24.67
2018-05-17T17:53:12.748Z,22.87
2018-05-17T17:55:40.304Z,23.67
2018-05-17T17:58:07.780Z,25.30
2018-05-17T18:00:36.013Z,22.23
2018-05-17T18:03:03.489Z,43.50
2018-05-17T18:05:31.007Z,46.37
2018-05-17T18:07:59.212Z,45.07
2018-05-17T18:10:26.676Z,31.60
2018-05-17T18:12:54.307Z,33.30
2018-05-17T18:15:21.764Z,32.70
2018-05-17T18:17:49.264Z,29.87
2018-05-17T18:20:16.824Z,29.70
2018-05-17T18:22:44.392Z,32.73
2018-05-17T18:25:11.901Z,31.90
2018-05-17T18:27:39.357Z,31.87
2018-05-17T18:30:06.861Z,29.50
2018-05-17T18:32:34.401Z,34.10
2018-05-17T18:35:02.604Z,32.53
2018-05-17T18:37:30.061Z,29.27
2018-05-17T18:39:57.617Z,32.27
2018-05-17T18:42:25.172Z,33.17
2018-05-17T18:44:52.748Z,31.40
2018-05-17T18:47:20.201Z,36.10
2018-05-17T18:49:47.753Z,36.07
2018-05-17T18:52:15.312Z,35.93
2018-05-17T18:54:42.877Z,40.33
2018-05-17T18:57:10.394Z,37.00
2018-05-17T18:59:37.902Z,41.20
2018-05-17T19:02:06.173Z,41.37
2018-05-17T19:04:33.724Z,43.87
2018-05-17T19:07:01.294Z,45.50
2018-05-17T19:09:28.770Z,44.53
2018-05-17T19:11:56.228Z,41.73
2018-05-17T19:14:24.461Z,51.00
2018-05-17T19:16:51.945Z,48.87
2018-05-17T19:19:19.501Z,50.90
2018-05-17T19:21:47.056Z,57.03
2018-05-17T19:24:14.629Z,52.10
2018-05-17T19:26:42.094Z,48.73
2018-05-17T19:29:09.701Z,53.90
2018-05-17T19:31:37.221Z,54.83
2018-05-17T19:34:04.660Z,56.43
2018-05-17T19:36:32.132Z,50.30
2018-05-17T19:38:59.677Z,50.43
2018-05-17T19:41:27.141Z,54.27
2018-05-17T19:43:54.618Z,58.40
2018-05-17T19:46:22.873Z,52.73
2018-05-17T19:48:50.424Z,50.97
2018-05-17T19:51:17.988Z,48.57
2018-05-17T19:53:45.453Z,52.70
2018-05-17T19:56:12.925Z,55.00
2018-05-17T19:58:40.392Z,54.10
2018-05-17T20:01:08.645Z,49.67
2018-05-17T20:03:36.201Z,55.57
2018-05-17T20:06:03.669Z,54.53
2018-05-17T20:08:31.225Z,49.77
2018-05-17T20:10:58.784Z,52.27
2018-05-17T20:13:26.264Z,55.90
2018-05-17T20:15:53.724Z,52.70
2018-05-17T20:18:21.961Z,58.27
2018-05-17T20:20:49.537Z,62.70
2018-05-17T20:23:17.010Z,60.20
2018-05-17T20:25:44.473Z,56.27
2018-05-17T20:28:12.795Z,57.27
2018-05-17T20:30:40.292Z,57.70
2018-05-17T20:33:07.757Z,63.10
2018-05-17T20:35:36.020Z,58.73
2018-05-17T20:38:03.496Z,56.40
2018-05-17T20:40:31.038Z,62.17
2018-05-17T20:42:58.605Z,66.80
2018-05-17T20:45:26.068Z,56.83
2018-05-17T20:47:53.543Z,64.80
2018-05-17T20:50:21.793Z,57.97
2018-05-17T20:52:49.256Z,64.70
2018-05-17T20:55:16.761Z,60.93
2018-05-17T20:57:44.185Z,59.10
2018-05-17T21:00:11.732Z,63.13
2018-05-17T21:02:39.284Z,60.43
2018-05-17T21:05:06.854Z,62.97
2018-05-17T21:07:34.421Z,61.23
2018-05-17T21:10:01.968Z,62.30
2018-05-17T21:12:30.249Z,58.13
2018-05-17T21:14:57.810Z,61.03
2018-05-17T21:17:25.277Z,61.17
2018-05-17T21:19:52.736Z,54.00
2018-05-17T21:22:20.285Z,55.53
2018-05-17T21:24:47.762Z,62.37
2018-05-17T21:27:15.286Z,61.00
2018-05-17T21:29:43.456Z,58.33
2018-05-17T21:32:10.995Z,61.60
2018-05-17T21:34:38.445Z,57.50
2018-05-17T21:37:05.953Z,59.03
2018-05-17T21:39:33.517Z,57.90
2018-05-17T21:42:01.075Z,60.20
2018-05-17T21:44:29.411Z,61.13
2018-05-17T21:46:56.865Z,63.20
2018-05-17T21:49:24.385Z,64.87
2018-05-17T21:51:51.929Z,68.23
2018-05-17T21:54:19.493Z,66.47
2018-05-17T21:56:46.972Z,60.83
2018-05-17T21:59:15.204Z,58.57
2018-05-17T22:01:42.689Z,61.73
2018-05-17T22:04:10.161Z,60.63
2018-05-17T22:06:38.389Z,59.63
2018-05-17T22:09:05.852Z,57.47
2018-05-17T22:11:33.321Z,61.50
2018-05-17T22:14:00.897Z,62.10
2018-05-17T22:16:28.449Z,62.17
2018-05-17T22:18:55.973Z,58.17
2018-05-17T22:21:23.473Z,59.03
2018-05-17T22:23:50.949Z,61.77
2018-05-17T22:26:18.416Z,67.20
2018-05-17T22:28:46.677Z,63.43
2018-05-17T22:31:14.225Z,63.30
2018-05-17T22:33:41.744Z,68.97
2018-05-17T22:36:09.305Z,58.53
2018-05-17T22:38:36.761Z,59.17
2018-05-17T22:41:04.260Z,64.37
2018-05-17T22:43:31.825Z,65.47
2018-05-17T22:45:59.300Z,67.17
2018-05-17T22:48:26.844Z,68.30
2018-05-17T22:50:54.405Z,67.03
2018-05-17T22:53:21.966Z,65.37
2018-05-17T22:55:49.525Z,66.33
2018-05-17T22:58:29.681Z,66.60
2018-05-17T23:00:58.081Z,67.20
2018-05-17T23:03:26.334Z,66.53
2018-05-17T23:05:53.805Z,70.50
2018-05-17T23:08:21.270Z,67.23
2018-05-17T23:10:49.537Z,76.07
2018-05-17T23:13:17.084Z,80.53
2018-05-17T23:15:45.365Z,74.97
2018-05-17T23:18:12.845Z,68.30
2018-05-17T23:20:41.100Z,72.37
2018-05-17T23:23:08.568Z,70.20
2018-05-17T23:25:36.052Z,64.10
2018-05-17T23:28:04.353Z,69.23
2018-05-17T23:30:31.810Z,67.43
2018-05-17T23:32:59.285Z,71.43
2018-05-17T23:35:26.756Z,70.47
2018-05-17T23:37:54.217Z,70.57
2018-05-17T23:40:33.484Z,69.87
2018-05-17T23:43:01.740Z,73.43
2018-05-17T23:45:29.209Z,77.03
2018-05-17T23:47:56.682Z,74.40
2018-05-17T23:50:25.740Z,89.13
2018-05-17T23:52:53.212Z,77.90
2018-05-17T23:55:20.688Z,71.87
2018-05-17T23:57:48.948Z,87.70
